Time;durP1;ratioP1;P1;durP2;ratioP2;P2;SDS_P1;SDS_P2;PMS_P1;PMS_P2;Temp;Humidity;BMP_temperature;BMP_pressure;BME280_temperature;BME280_humidity;BME280_pressure;Samples;Min_cycle;Max_cycle;Signal;HPM_P1;HPM_P2
2023/03/04 00:00:20;;;;;;;57.60;38.13;;;10.90;97.30;;;;;;4592060;19;20088;-37
2023/03/04 00:02:12;;;;;;;33.28;21.95;;;10.90;97.20;;;;;;4592503;19;20460;-33
2023/03/04 00:03:43;;;;;;;46.40;28.90;;;11.00;97.20;;;;;;4592073;19;20345;-32
2023/03/04 00:05:16;;;;;;;33.60;21.93;;;10.90;97.20;;;;;;4592076;19;20104;-33
2023/03/04 00:06:49;;;;;;;33.47;22.40;;;11.00;97.10;;;;;;4592105;19;20444;-36
2023/03/04 00:08:21;;;;;;;30.42;20.75;;;10.90;97.10;;;;;;4592073;19;20432;-35
2023/03/04 00:09:52;;;;;;;30.00;21.48;;;10.90;97.10;;;;;;4590620;19;20049;-33
2023/03/04 00:11:23;;;;;;;38.28;25.75;;;10.90;97.20;;;;;;4592207;19;20015;-36
2023/03/04 00:12:55;;;;;;;36.88;23.80;;;10.90;97.20;;;;;;4592268;19;20078;-33
2023/03/04 00:14:26;;;;;;;36.95;22.52;;;10.90;97.20;;;;;;4591926;19;20025;-32
2023/03/04 00:15:57;;;;;;;29.25;19.08;;;10.90;97.20;;;;;;4592134;19;20010;-35
2023/03/04 00:17:30;;;;;;;29.42;18.48;;;10.90;97.30;;;;;;4592284;19;20626;-35
2023/03/04 00:19:01;;;;;;;36.70;23.43;;;11.00;97.20;;;;;;4592135;19;20007;-32
2023/03/04 00:20:33;;;;;;;28.45;19.25;;;11.00;97.10;;;;;;4590880;19;20425;-31
2023/03/04 00:22:05;;;;;;;28.13;20.25;;;11.00;97.20;;;;;;4591562;19;20512;-31
2023/03/04 00:23:36;;;;;;;25.25;17.90;;;11.00;97.20;;;;;;4592111;19;20027;-32
2023/03/04 00:25:09;;;;;;;27.47;20.20;;;11.00;97.20;;;;;;4591965;19;20102;-32
2023/03/04 00:26:42;;;;;;;25.70;18.50;;;11.00;97.20;;;;;;4591455;19;20755;-35
2023/03/04 00:28:14;;;;;;;27.27;20.55;;;11.00;97.10;;;;;;4591467;19;20540;-37
2023/03/04 00:29:47;;;;;;;28.17;18.77;;;11.00;97.20;;;;;;4590274;19;20010;-35
2023/03/04 00:31:19;;;;;;;27.80;18.07;;;11.00;97.20;;;;;;4591718;19;20425;-31
2023/03/04 00:32:50;;;;;;;23.67;17.88;;;11.00;97.10;;;;;;4591604;19;20870;-33
2023/03/04 00:34:22;;;;;;;27.38;18.48;;;11.00;97.10;;;;;;4591579;19;20044;-37
2023/03/04 00:35:53;;;;;;;24.75;17.60;;;11.00;97.20;;;;;;4591142;19;20047;-33
2023/03/04 00:37:24;;;;;;;24.80;18.63;;;10.90;97.10;;;;;;4591254;19;20010;-34
2023/03/04 00:38:56;;;;;;;27.90;18.20;;;10.90;97.20;;;;;;4590559;19;20015;-36
2023/03/04 00:40:29;;;;;;;25.43;18.33;;;11.00;97.20;;;;;;4591196;19;20021;-35
2023/03/04 00:42:01;;;;;;;23.58;17.42;;;10.90;97.10;;;;;;4591641;19;20436;-33
2023/03/04 00:43:32;;;;;;;24.08;17.20;;;10.90;97.10;;;;;;4591392;19;20036;-34
2023/03/04 00:45:05;;;;;;;22.23;16.57;;;10.90;97.20;;;;;;4591330;19;20022;-32
2023/03/04 00:46:38;;;;;;;22.00;16.50;;;11.00;97.10;;;;;;4591318;19;20524;-34
2023/03/04 00:48:10;;;;;;;26.10;18.58;;;11.00;97.10;;;;;;4591350;19;20544;-38
2023/03/04 00:49:41;;;;;;;;;;;10.90;97.10;;;;;;4591208;19;20364;-35
2023/03/04 00:51:13;;;;;;;28.13;20.45;;;10.90;97.10;;;;;;4591649;19;19919;-32
2023/03/04 00:52:45;;;;;;;30.73;19.83;;;10.90;97.10;;;;;;4591659;19;20041;-33
2023/03/04 00:54:19;;;;;;;29.95;20.48;;;10.90;97.20;;;;;;4591190;19;20767;-31
2023/03/04 00:55:50;;;;;;;33.13;20.63;;;10.80;97.10;;;;;;4591099;19;20029;-34
2023/03/04 00:57:22;;;;;;;27.08;18.70;;;10.80;97.20;;;;;;4590373;19;20453;-36
2023/03/04 00:58:55;;;;;;;23.33;17.83;;;10.80;97.20;;;;;;4591367;19;20027;-35
2023/03/04 01:00:26;;;;;;;29.70;21.00;;;10.80;97.10;;;;;;4590979;19;20437;-33
2023/03/04 01:01:57;;;;;;;27.05;19.35;;;10.80;97.10;;;;;;4591100;19;20020;-36
2023/03/04 01:03:31;;;;;;;28.70;20.03;;;10.90;97.10;;;;;;4590826;19;20010;-38
2023/03/04 01:05:02;;;;;;;29.93;20.90;;;10.90;97.00;;;;;;4590950;19;20819;-35
2023/03/04 01:06:34;;;;;;;27.52;20.20;;;10.90;97.00;;;;;;4590831;19;20528;-35
2023/03/04 01:08:06;;;;;;;30.52;20.08;;;10.90;97.00;;;;;;4591093;19;20501;-33
2023/03/04 01:09:37;;;;;;;29.38;20.30;;;10.90;97.00;;;;;;4589775;19;20035;-35
2023/03/04 01:11:09;;;;;;;27.80;19.00;;;10.80;97.00;;;;;;4590999;19;20619;-33
2023/03/04 01:12:40;;;;;;;24.45;17.52;;;10.90;97.10;;;;;;4590840;19;20011;-34
2023/03/04 01:14:12;;;;;;;24.88;18.15;;;10.80;97.10;;;;;;4590707;19;20480;-32
2023/03/04 01:15:43;;;;;;;28.52;19.42;;;10.80;97.10;;;;;;4590723;19;20077;-33
2023/03/04 01:17:15;;;;;;;26.17;17.77;;;10.80;97.10;;;;;;4590919;19;20047;-33
2023/03/04 01:18:46;;;;;;;25.35;18.38;;;10.80;97.20;;;;;;4590860;19;20022;-31
2023/03/04 01:20:19;;;;;;;27.40;18.93;;;10.80;97.10;;;;;;4590836;19;20027;-31
2023/03/04 01:21:50;;;;;;;23.48;17.45;;;10.70;97.20;;;;;;4589294;19;20437;-33
2023/03/04 01:23:21;;;;;;;25.13;16.98;;;10.80;97.30;;;;;;4590142;19;20451;-31
2023/03/04 01:24:53;;;;;;;26.17;18.65;;;10.80;97.30;;;;;;4590432;19;20483;-31
2023/03/04 01:26:25;;;;;;;23.00;16.60;;;10.80;97.30;;;;;;4590423;19;20510;-32
2023/03/04 01:27:56;;;;;;;23.30;16.67;;;10.90;97.20;;;;;;4590651;19;20015;-32
2023/03/04 01:29:27;;;;;;;23.13;16.70;;;10.80;97.10;;;;;;4589115;19;20030;-31
2023/03/04 01:31:00;;;;;;;21.07;17.10;;;10.80;97.10;;;;;;4589396;19;20010;-33
2023/03/04 01:32:31;;;;;;;;;;;10.80;97.20;;;;;;4591057;19;20463;-32
2023/03/04 01:34:03;;;;;;;22.15;16.58;;;10.80;97.20;;;;;;4590813;19;20233;-31
2023/03/04 01:35:35;;;;;;;;;;;10.70;97.10;;;;;;4588848;19;20010;-32
2023/03/04 01:37:06;;;;;;;25.53;18.37;;;10.80;97.20;;;;;;4589760;19;19948;-32
2023/03/04 01:38:39;;;;;;;23.80;18.00;;;10.80;97.20;;;;;;4588957;19;20003;-31
2023/03/04 01:40:12;;;;;;;24.30;18.07;;;10.90;97.10;;;;;;4590216;19;20451;-32
2023/03/04 01:41:44;;;;;;;24.07;17.70;;;10.80;96.90;;;;;;4589080;19;20475;-31
2023/03/04 01:43:26;;;;;;;24.65;17.90;;;10.90;97.00;;;;;;4589986;19;20425;-32
2023/03/04 01:44:59;;;;;;;24.97;17.40;;;10.90;97.00;;;;;;4588997;19;20022;-32
2023/03/04 01:46:32;;;;;;;21.47;16.47;;;10.80;97.20;;;;;;4589480;19;20440;-31
2023/03/04 01:48:04;;;;;;;24.58;17.65;;;10.90;97.60;;;;;;4589821;19;20448;-32
2023/03/04 01:49:36;;;;;;;21.57;17.10;;;10.90;97.80;;;;;;4587972;19;20019;-31
2023/03/04 01:51:11;;;;;;;20.95;15.85;;;10.90;97.70;;;;;;4588926;19;21254;-32
2023/03/04 01:52:43;;;;;;;21.63;16.67;;;10.90;97.60;;;;;;4588911;19;20030;-32
2023/03/04 01:54:16;;;;;;;22.90;17.47;;;11.00;97.40;;;;;;4589692;19;20493;-32
2023/03/04 01:55:51;;;;;;;23.33;16.57;;;11.00;97.20;;;;;;4589800;19;20556;-32
2023/03/04 01:57:25;;;;;;;22.33;17.43;;;11.00;97.30;;;;;;4589324;19;20546;-32
2023/03/04 01:59:09;;;;;;;21.75;16.58;;;11.10;97.30;;;;;;4587854;19;20424;-33
2023/03/04 02:00:41;;;;;;;26.17;18.50;;;11.00;97.40;;;;;;4589361;19;20014;-32
2023/03/04 02:02:12;;;;;;;28.08;18.73;;;11.00;97.40;;;;;;4588618;19;20488;-32
2023/03/04 02:03:44;;;;;;;20.37;16.00;;;11.10;97.40;;;;;;4588559;19;20025;-31
2023/03/04 02:05:16;;;;;;;21.67;16.35;;;11.00;97.30;;;;;;4588934;19;20566;-32
2023/03/04 02:06:48;;;;;;;;;;;10.90;97.30;;;;;;4590226;19;20031;-33
2023/03/04 02:08:21;;;;;;;;;;;10.90;97.50;;;;;;4590732;19;19931;-32
2023/03/04 02:09:52;;;;;;;23.52;17.55;;;10.80;97.60;;;;;;4588624;19;19918;-31
2023/03/04 02:11:23;;;;;;;21.15;15.57;;;10.80;97.60;;;;;;4589619;19;20020;-33
2023/03/04 02:12:56;;;;;;;23.67;16.83;;;10.90;97.70;;;;;;4589482;19;20021;-34
2023/03/04 02:14:27;;;;;;;25.02;17.77;;;11.00;97.90;;;;;;4589520;19;20467;-31
2023/03/04 02:16:00;;;;;;;23.23;17.27;;;11.00;97.50;;;;;;4590122;19;20015;-31
2023/03/04 02:17:31;;;;;;;23.15;17.70;;;11.10;97.60;;;;;;4588266;19;20424;-33
2023/03/04 02:19:04;;;;;;;23.50;17.20;;;11.00;97.30;;;;;;4589283;19;20011;-32
2023/03/04 02:20:44;;;;;;;24.53;17.60;;;11.00;97.20;;;;;;4588472;19;20006;-31
2023/03/04 02:22:15;;;;;;;23.47;16.60;;;11.00;97.30;;;;;;4589340;19;20541;-31
2023/03/04 02:23:55;;;;;;;25.10;17.00;;;11.00;97.40;;;;;;4588191;19;20429;-32
2023/03/04 02:25:32;;;;;;;26.67;17.90;;;11.10;97.50;;;;;;4589235;19;20006;-31
2023/03/04 02:27:03;;;;;;;26.23;17.27;;;11.00;97.40;;;;;;4566265;19;20401;-32
2023/03/04 02:28:35;;;;;;;22.97;15.87;;;10.90;97.30;;;;;;4587454;19;20481;-30
2023/03/04 02:30:07;;;;;;;21.88;15.38;;;10.90;97.20;;;;;;4590458;19;20643;-30
2023/03/04 02:31:49;;;;;;;24.13;17.53;;;11.00;97.30;;;;;;4587385;19;20025;-36
2023/03/04 02:33:20;;;;;;;24.55;15.70;;;11.00;97.30;;;;;;4587941;19;20576;-30
2023/03/04 02:34:51;;;;;;;20.88;15.63;;;11.10;97.30;;;;;;4587636;19;20069;-29
2023/03/04 02:36:23;;;;;;;19.80;15.18;;;11.10;97.20;;;;;;4587458;19;20041;-30
2023/03/04 02:37:55;;;;;;;22.00;15.90;;;11.20;97.00;;;;;;4586615;19;20765;-38
2023/03/04 02:39:30;;;;;;;23.00;16.13;;;11.20;96.90;;;;;;4587391;19;20018;-32
2023/03/04 02:41:01;;;;;;;21.07;15.73;;;11.20;97.10;;;;;;4589755;19;20453;-30
2023/03/04 02:42:32;;;;;;;20.05;15.05;;;11.20;97.00;;;;;;4588172;19;20519;-35
2023/03/04 02:44:19;;;;;;;20.13;15.70;;;11.30;97.00;;;;;;4589226;19;20011;-34
2023/03/04 02:45:50;;;;;;;20.23;14.93;;;11.30;97.00;;;;;;4588576;19;20082;-37
2023/03/04 02:47:21;;;;;;;20.50;15.63;;;11.40;97.00;;;;;;4589303;19;20456;-34
2023/03/04 02:48:53;;;;;;;18.15;14.38;;;11.40;96.90;;;;;;4588759;19;20011;-33
2023/03/04 02:50:24;;;;;;;21.25;16.27;;;11.40;96.90;;;;;;4586739;19;20010;-33
2023/03/04 02:52:06;;;;;;;19.77;15.80;;;11.50;96.90;;;;;;4591598;19;20018;-32
2023/03/04 02:53:38;;;;;;;24.13;17.67;;;11.50;96.90;;;;;;4592749;19;20021;-34
2023/03/04 02:55:09;;;;;;;27.92;18.85;;;11.50;96.70;;;;;;4592640;19;20483;-31
2023/03/04 02:56:45;;;;;;;30.33;19.55;;;11.50;96.70;;;;;;4591662;19;20022;-32
2023/03/04 02:58:16;;;;;;;22.03;16.73;;;11.50;96.60;;;;;;4592078;19;20028;-33
2023/03/04 02:59:48;;;;;;;24.77;18.10;;;11.50;96.70;;;;;;4595004;19;20584;-32
2023/03/04 03:01:19;;;;;;;22.27;16.08;;;11.60;96.80;;;;;;4594434;19;20025;-35
2023/03/04 03:02:51;;;;;;;20.20;16.65;;;11.60;96.90;;;;;;4594184;19;20070;-34
2023/03/04 03:04:22;;;;;;;20.27;15.60;;;11.60;96.70;;;;;;4596120;19;20031;-31
2023/03/04 03:05:54;;;;;;;20.00;16.60;;;11.60;96.60;;;;;;4593687;19;20011;-39
2023/03/04 03:07:25;;;;;;;;;;;11.60;96.60;;;;;;4593648;19;20365;-33
2023/03/04 03:08:56;;;;;;;21.43;16.80;;;11.60;96.80;;;;;;4593078;19;19926;-33
2023/03/04 03:10:29;;;;;;;20.07;16.77;;;11.50;96.60;;;;;;4593342;19;20472;-35
2023/03/04 03:12:00;;;;;;;20.75;16.05;;;11.50;96.60;;;;;;4593331;19;21064;-33
2023/03/04 03:13:32;;;;;;;18.40;15.45;;;11.50;96.60;;;;;;4593369;19;20491;-31
2023/03/04 03:15:04;;;;;;;;;;;11.50;96.70;;;;;;4593963;19;20011;-31
2023/03/04 03:16:35;;;;;;;23.52;17.83;;;11.50;96.90;;;;;;4593373;19;19922;-36
2023/03/04 03:18:10;;;;;;;;;;;11.50;96.80;;;;;;4594466;19;20019;-31
2023/03/04 03:19:41;;;;;;;19.57;14.93;;;11.60;97.00;;;;;;4593189;19;19915;-39
2023/03/04 03:21:13;;;;;;;;;;;11.50;96.80;;;;;;4593711;19;20441;-33
2023/03/04 03:22:44;;;;;;;20.67;16.07;;;11.50;97.20;;;;;;4593333;19;20301;-31
2023/03/04 03:24:16;;;;;;;24.20;14.93;;;11.50;96.80;;;;;;4591756;19;20502;-36
2023/03/04 03:25:49;;;;;;;22.17;17.03;;;11.50;96.90;;;;;;4592780;19;20449;-38
2023/03/04 03:27:21;;;;;;;19.93;15.57;;;11.50;96.90;;;;;;4591767;19;20425;-37
2023/03/04 03:28:52;;;;;;;21.77;15.50;;;11.50;97.00;;;;;;4591681;19;20457;-32
2023/03/04 03:30:24;;;;;;;18.52;15.27;;;11.50;96.90;;;;;;4592754;19;20034;-34
2023/03/04 03:31:56;;;;;;;18.93;15.47;;;11.60;96.90;;;;;;4593171;19;20027;-33
2023/03/04 03:33:27;;;;;;;20.33;16.30;;;11.60;97.00;;;;;;4593127;19;20476;-34
2023/03/04 03:34:59;;;;;;;22.05;17.38;;;11.60;97.00;;;;;;4592600;19;20074;-37
2023/03/04 03:36:30;;;;;;;21.48;16.60;;;11.60;97.00;;;;;;4592649;19;20011;-33
2023/03/04 03:38:02;;;;;;;21.35;15.57;;;11.50;97.10;;;;;;4592507;19;20014;-31
2023/03/04 03:39:33;;;;;;;21.60;15.68;;;11.50;96.90;;;;;;4592992;19;20006;-31
2023/03/04 03:41:06;;;;;;;21.83;15.60;;;11.60;96.90;;;;;;4593192;19;20007;-31
2023/03/04 03:42:39;;;;;;;20.50;15.00;;;11.60;96.90;;;;;;4592710;19;20436;-31
2023/03/04 03:44:12;;;;;;;22.83;15.83;;;11.60;96.90;;;;;;4591532;19;20433;-32
2023/03/04 03:45:43;;;;;;;19.85;16.35;;;11.50;96.90;;;;;;4591890;19;21035;-31
2023/03/04 03:47:14;;;;;;;21.13;14.55;;;11.50;97.00;;;;;;4592520;19;20018;-32
2023/03/04 03:48:46;;;;;;;22.52;15.35;;;11.50;97.00;;;;;;4592158;19;20066;-32
2023/03/04 03:50:17;;;;;;;20.15;14.73;;;11.50;97.00;;;;;;4592623;19;20014;-31
2023/03/04 03:51:48;;;;;;;18.92;14.45;;;11.50;97.10;;;;;;4592395;19;20014;-35
2023/03/04 03:53:20;;;;;;;19.15;14.32;;;11.40;97.20;;;;;;4592310;19;20006;-33
2023/03/04 03:54:51;;;;;;;19.50;13.70;;;11.30;97.30;;;;;;4592362;19;20364;-35
2023/03/04 03:56:22;;;;;;;21.63;14.02;;;11.30;97.20;;;;;;4592281;19;20014;-34
2023/03/04 03:57:54;;;;;;;18.00;13.57;;;11.40;97.40;;;;;;4590513;19;20030;-34
2023/03/04 03:59:25;;;;;;;19.75;13.48;;;11.40;97.50;;;;;;4592279;19;20014;-33
2023/03/04 04:00:56;;;;;;;20.30;14.95;;;11.40;97.40;;;;;;4591881;19;20018;-31
2023/03/04 04:02:28;;;;;;;19.70;13.27;;;11.40;97.40;;;;;;4591894;19;20040;-34
2023/03/04 04:04:00;;;;;;;19.57;13.47;;;11.50;97.40;;;;;;4592489;19;20014;-34
2023/03/04 04:05:31;;;;;;;18.55;13.27;;;11.50;97.40;;;;;;4592072;19;20471;-33
2023/03/04 04:07:03;;;;;;;16.73;12.85;;;11.50;97.40;;;;;;4592161;19;20507;-35
2023/03/04 04:08:35;;;;;;;16.52;12.48;;;11.50;97.40;;;;;;4590985;19;20078;-39
2023/03/04 04:10:06;;;;;;;19.25;13.75;;;11.50;97.50;;;;;;4590154;19;20482;-35
2023/03/04 04:11:38;;;;;;;17.57;12.93;;;11.50;97.50;;;;;;4592395;19;20010;-37
2023/03/04 04:13:10;;;;;;;18.55;12.48;;;11.50;97.40;;;;;;4591588;19;21065;-34
2023/03/04 04:14:41;;;;;;;16.83;12.93;;;11.50;97.50;;;;;;4593557;19;20010;-34
2023/03/04 04:16:13;;;;;;;17.17;12.80;;;11.50;97.50;;;;;;4594060;19;20070;-36
2023/03/04 04:17:44;;;;;;;19.77;14.18;;;11.50;97.40;;;;;;4591991;19;20384;-32
2023/03/04 04:19:19;;;;;;;18.17;12.93;;;11.40;97.30;;;;;;4592878;19;20022;-31
2023/03/04 04:20:51;;;;;;;17.37;12.97;;;11.40;97.50;;;;;;4592552;19;20373;-31
2023/03/04 04:22:22;;;;;;;;;;;11.40;97.60;;;;;;4593859;19;20563;-34
2023/03/04 04:23:54;;;;;;;16.40;11.50;;;11.40;97.60;;;;;;4593639;19;19919;-36
2023/03/04 04:25:26;;;;;;;15.83;11.47;;;11.30;97.60;;;;;;4591742;19;20350;-37
2023/03/04 04:26:58;;;;;;;16.10;12.73;;;11.30;97.60;;;;;;4591770;19;20471;-30
2023/03/04 04:28:30;;;;;;;16.85;11.43;;;11.20;97.70;;;;;;4592533;19;20445;-32
2023/03/04 04:30:03;;;;;;;19.47;12.97;;;11.30;97.60;;;;;;4592314;19;20487;-31
2023/03/04 04:31:35;;;;;;;20.77;13.10;;;11.30;97.60;;;;;;4594045;19;20507;-32
2023/03/04 04:33:06;;;;;;;18.95;12.43;;;11.30;97.50;;;;;;4593800;19;20813;-33
2023/03/04 04:34:37;;;;;;;19.33;12.27;;;11.40;97.50;;;;;;4594001;19;20037;-32
2023/03/04 04:36:12;;;;;;;;;;;11.40;97.50;;;;;;4594843;19;20023;-36
2023/03/04 04:37:43;;;;;;;17.03;12.33;;;11.40;97.50;;;;;;4590559;19;19919;-32
2023/03/04 04:39:15;;;;;;;16.33;10.98;;;11.40;97.40;;;;;;4591227;19;20580;-40
2023/03/04 04:40:46;;;;;;;16.73;11.97;;;11.50;97.40;;;;;;4591251;19;20074;-35
2023/03/04 04:42:18;;;;;;;18.70;12.77;;;11.40;97.40;;;;;;4591648;19;20417;-33
2023/03/04 04:43:49;;;;;;;17.55;11.57;;;11.40;97.40;;;;;;4591665;19;20017;-36
2023/03/04 04:45:23;;;;;;;15.53;12.60;;;11.40;97.30;;;;;;4591315;19;20011;-38
2023/03/04 04:46:55;;;;;;;16.80;11.93;;;11.40;97.30;;;;;;4590276;19;20472;-36
2023/03/04 04:48:27;;;;;;;17.37;12.60;;;11.40;97.40;;;;;;4590846;19;20444;-42
2023/03/04 04:50:00;;;;;;;15.70;11.83;;;11.50;97.40;;;;;;4590041;19;20441;-36
2023/03/04 04:51:32;;;;;;;17.42;11.77;;;11.40;97.40;;;;;;4591045;19;21058;-33
2023/03/04 04:53:03;;;;;;;17.63;12.30;;;11.50;97.30;;;;;;4591254;19;20006;-32
2023/03/04 04:54:35;;;;;;;17.70;11.48;;;11.40;97.40;;;;;;4591051;19;20429;-34
2023/03/04 04:56:13;;;;;;;17.98;12.27;;;11.50;97.40;;;;;;4591205;19;20490;-34
2023/03/04 04:57:46;;;;;;;16.27;11.00;;;11.50;97.30;;;;;;4589584;19;20014;-35
2023/03/04 04:59:18;;;;;;;16.57;12.13;;;11.50;97.30;;;;;;4591073;19;20425;-35
2023/03/04 05:00:50;;;;;;;13.85;10.73;;;11.50;97.30;;;;;;4590882;19;20478;-33
2023/03/04 05:02:22;;;;;;;15.97;11.17;;;11.50;97.30;;;;;;4591290;19;20010;-37
2023/03/04 05:03:54;;;;;;;16.60;11.10;;;11.50;97.30;;;;;;4589905;19;20464;-35
2023/03/04 05:05:25;;;;;;;21.88;11.90;;;11.50;97.20;;;;;;4590805;19;20453;-35
2023/03/04 05:06:58;;;;;;;14.97;11.77;;;11.50;97.10;;;;;;4591190;19;20010;-33
2023/03/04 05:08:29;;;;;;;21.30;12.75;;;11.50;97.10;;;;;;4590919;19;20862;-38
2023/03/04 05:10:01;;;;;;;22.00;13.30;;;11.50;97.20;;;;;;4589757;19;20023;-33
2023/03/04 05:11:32;;;;;;;19.58;11.85;;;11.50;97.20;;;;;;4589892;19;20018;-34
2023/03/04 05:13:03;;;;;;;17.67;11.73;;;11.50;97.20;;;;;;4587730;19;20010;-37
2023/03/04 05:14:36;;;;;;;15.60;10.90;;;11.50;97.30;;;;;;4590405;19;20578;-31
2023/03/04 05:16:08;;;;;;;18.55;11.85;;;11.50;97.10;;;;;;4591345;19;20445;-32
2023/03/04 05:17:40;;;;;;;15.57;11.23;;;11.50;97.20;;;;;;4593341;19;20106;-31
2023/03/04 05:19:12;;;;;;;14.65;10.80;;;11.40;97.20;;;;;;4589916;19;20413;-32
2023/03/04 05:20:43;;;;;;;19.42;11.27;;;11.40;97.20;;;;;;4589644;19;20034;-31
2023/03/04 05:22:14;;;;;;;14.93;10.80;;;11.40;97.20;;;;;;4590199;19;20066;-31
2023/03/04 05:23:46;;;;;;;17.92;11.10;;;11.30;97.20;;;;;;4590565;19;20010;-31
2023/03/04 05:25:18;;;;;;;;;;;11.30;97.20;;;;;;4591414;19;20026;-30
2023/03/04 05:26:49;;;;;;;13.73;10.77;;;11.20;97.30;;;;;;4590040;19;19919;-31
2023/03/04 05:28:21;;;;;;;15.30;10.27;;;11.20;97.40;;;;;;4587465;19;20646;-33
2023/03/04 05:29:54;;;;;;;17.45;10.35;;;11.30;97.40;;;;;;4588951;19;20484;-31
2023/03/04 05:31:26;;;;;;;19.13;11.10;;;11.30;97.40;;;;;;4588304;19;20010;-32
2023/03/04 05:32:57;;;;;;;16.65;10.25;;;11.30;97.30;;;;;;4589307;19;20472;-31
2023/03/04 05:34:29;;;;;;;13.13;9.48;;;11.30;97.40;;;;;;4589876;19;20367;-34
2023/03/04 05:36:01;;;;;;;18.17;10.65;;;11.30;97.50;;;;;;4589815;19;20010;-32
2023/03/04 05:37:32;;;;;;;16.27;10.73;;;11.40;97.40;;;;;;4589050;19;20010;-36
2023/03/04 05:39:04;;;;;;;17.27;10.40;;;11.30;97.40;;;;;;4588730;19;20543;-34
2023/03/04 05:40:35;;;;;;;17.10;10.20;;;11.40;97.40;;;;;;4588608;19;20021;-40
2023/03/04 05:42:07;;;;;;;18.57;10.13;;;11.30;97.30;;;;;;4591570;19;20048;-33
2023/03/04 05:43:41;;;;;;;15.80;10.48;;;11.30;97.30;;;;;;4588327;19;20453;-33
2023/03/04 05:45:12;;;;;;;17.70;10.97;;;11.30;97.40;;;;;;4587805;19;20027;-36
2023/03/04 05:46:44;;;;;;;16.20;10.60;;;11.30;97.30;;;;;;4588064;19;20496;-33
2023/03/04 05:48:15;;;;;;;17.83;10.07;;;11.30;97.50;;;;;;4588136;19;20006;-36
2023/03/04 05:49:46;;;;;;;15.55;11.32;;;11.30;97.50;;;;;;4586396;19;20015;-29
2023/03/04 05:51:18;;;;;;;18.98;10.88;;;11.30;97.40;;;;;;4588688;19;20423;-31
2023/03/04 05:52:49;;;;;;;;;;;11.30;97.40;;;;;;4589574;19;20082;-30
2023/03/04 05:54:20;;;;;;;15.53;10.97;;;11.30;97.50;;;;;;4588245;19;19923;-28
2023/03/04 05:55:52;;;;;;;19.13;10.35;;;11.30;97.40;;;;;;4587578;19;20553;-32
2023/03/04 05:57:23;;;;;;;13.65;9.18;;;11.30;97.40;;;;;;4587506;19;20014;-31
2023/03/04 05:58:58;;;;;;;16.13;10.57;;;11.50;97.40;;;;;;4588474;19;20010;-31
2023/03/04 06:00:29;;;;;;;16.03;9.93;;;11.60;97.30;;;;;;4587835;19;20018;-31
2023/03/04 06:02:01;;;;;;;13.38;8.88;;;11.60;97.30;;;;;;4587628;19;20484;-31
2023/03/04 06:03:32;;;;;;;17.73;10.02;;;11.50;97.20;;;;;;4587383;19;20094;-28
2023/03/04 06:05:04;;;;;;;16.75;10.20;;;11.50;97.20;;;;;;4587456;19;20070;-30
2023/03/04 06:06:37;;;;;;;13.87;9.40;;;11.50;97.30;;;;;;4588417;19;20527;-36
2023/03/04 06:08:09;;;;;;;15.50;9.27;;;11.50;97.30;;;;;;4587941;19;20529;-35
2023/03/04 06:09:43;;;;;;;14.37;10.07;;;11.50;97.30;;;;;;4586904;19;20007;-35
2023/03/04 06:11:16;;;;;;;16.27;10.03;;;11.50;97.40;;;;;;4587851;19;21082;-33
2023/03/04 06:12:48;;;;;;;15.43;9.20;;;11.40;97.30;;;;;;4587293;19;20525;-33
2023/03/04 06:14:21;;;;;;;14.37;10.00;;;11.40;97.40;;;;;;4587473;19;21051;-35
2023/03/04 06:15:56;;;;;;;14.13;9.20;;;11.40;97.40;;;;;;4588339;19;20508;-39
2023/03/04 06:17:29;;;;;;;13.77;9.27;;;11.40;97.70;;;;;;4589709;19;20025;-40
2023/03/04 06:19:00;;;;;;;14.38;9.20;;;11.60;97.40;;;;;;4588227;19;20861;-33
2023/03/04 06:20:32;;;;;;;14.38;9.43;;;11.60;97.30;;;;;;4588693;19;20028;-37
2023/03/04 06:22:04;;;;;;;15.43;10.35;;;11.60;97.20;;;;;;4589447;19;20015;-32
2023/03/04 06:23:35;;;;;;;18.03;9.90;;;11.60;97.20;;;;;;4589672;19;20022;-35
2023/03/04 06:25:08;;;;;;;17.60;9.13;;;11.50;97.40;;;;;;4588855;19;21016;-32
2023/03/04 06:26:39;;;;;;;14.77;8.65;;;11.60;97.30;;;;;;4588102;19;20468;-36
2023/03/04 06:28:11;;;;;;;16.00;8.75;;;11.70;97.50;;;;;;4589114;19;20038;-33
2023/03/04 06:29:43;;;;;;;12.50;8.93;;;11.80;97.30;;;;;;4588369;19;20046;-35
2023/03/04 06:31:15;;;;;;;20.20;8.50;;;11.80;97.20;;;;;;4589335;19;20524;-31
2023/03/04 06:32:48;;;;;;;15.40;10.13;;;11.90;97.20;;;;;;4587639;19;20341;-32
2023/03/04 06:34:19;;;;;;;16.15;8.95;;;11.90;97.10;;;;;;4588044;19;20531;-31
2023/03/04 06:35:54;;;;;;;14.80;8.23;;;11.90;97.40;;;;;;4588917;19;20018;-30
2023/03/04 06:37:26;;;;;;;15.10;8.73;;;11.90;97.10;;;;;;4587960;19;20011;-30
2023/03/04 06:38:58;;;;;;;16.20;8.20;;;12.00;97.10;;;;;;4588790;19;20835;-31
2023/03/04 06:40:29;;;;;;;14.70;8.50;;;12.00;97.00;;;;;;4589299;19;20429;-31
2023/03/04 06:42:00;;;;;;;15.18;8.68;;;12.10;97.00;;;;;;4589137;19;20010;-34
2023/03/04 06:43:32;;;;;;;14.48;7.25;;;12.10;97.00;;;;;;4590167;19;20037;-32
2023/03/04 06:45:05;;;;;;;15.50;7.90;;;12.10;97.00;;;;;;4588058;19;20474;-36
2023/03/04 06:46:37;;;;;;;12.37;7.53;;;12.10;97.00;;;;;;4587740;19;20479;-37
2023/03/04 06:48:08;;;;;;;15.18;7.90;;;12.10;97.00;;;;;;4587908;19;20448;-31
2023/03/04 06:49:40;;;;;;;17.75;7.57;;;12.20;96.80;;;;;;4585916;19;20056;-31
2023/03/04 06:51:11;;;;;;;13.88;7.57;;;12.20;96.90;;;;;;4588131;19;20021;-32
2023/03/04 06:52:43;;;;;;;15.53;7.93;;;12.20;96.90;;;;;;4589252;19;20013;-35
2023/03/04 06:54:15;;;;;;;14.02;8.07;;;12.20;96.90;;;;;;4588770;19;20890;-32
2023/03/04 06:55:49;;;;;;;14.43;7.53;;;12.20;96.90;;;;;;4588870;19;20010;-30
2023/03/04 06:57:20;;;;;;;16.13;9.20;;;12.20;96.90;;;;;;4588130;19;20572;-32
2023/03/04 06:58:51;;;;;;;21.77;10.50;;;12.30;97.00;;;;;;4588560;19;20455;-31
2023/03/04 07:00:24;;;;;;;19.33;11.50;;;12.30;96.90;;;;;;4588924;19;20434;-30
2023/03/04 07:01:57;;;;;;;28.77;18.33;;;12.30;96.90;;;;;;4588937;19;20516;-31
2023/03/04 07:03:30;;;;;;;24.47;15.13;;;12.30;96.90;;;;;;4589348;19;20418;-35
2023/03/04 07:05:02;;;;;;;27.50;17.03;;;12.30;96.90;;;;;;4588558;19;20847;-35
2023/03/04 07:06:34;;;;;;;33.15;20.60;;;12.40;96.90;;;;;;4587486;19;20787;-33
2023/03/04 07:08:06;;;;;;;26.02;14.85;;;12.40;96.80;;;;;;4588415;19;20344;-30
2023/03/04 07:09:39;;;;;;;19.73;11.67;;;12.40;96.80;;;;;;4588017;19;20358;-29
2023/03/04 07:11:11;;;;;;;;;;;12.40;96.90;;;;;;4589495;19;20468;-32
2023/03/04 07:12:42;;;;;;;16.47;9.57;;;12.50;96.90;;;;;;4588639;19;19919;-36
2023/03/04 07:14:14;;;;;;;14.63;8.67;;;12.50;96.80;;;;;;4588408;19;20493;-31
2023/03/04 07:15:46;;;;;;;15.52;9.43;;;12.50;96.80;;;;;;4587733;19;20919;-34
2023/03/04 07:17:17;;;;;;;14.73;8.55;;;12.50;96.80;;;;;;4588276;19;20033;-31
2023/03/04 07:18:49;;;;;;;13.80;8.20;;;12.30;96.70;;;;;;4590392;19;20046;-31
2023/03/04 07:20:21;;;;;;;;;;;12.20;96.80;;;;;;4588294;19;20429;-31
2023/03/04 07:21:52;;;;;;;14.53;7.53;;;12.10;97.10;;;;;;4587312;19;20388;-33
2023/03/04 07:23:23;;;;;;;18.48;9.27;;;12.10;97.30;;;;;;4587653;19;20014;-32
2023/03/04 07:24:54;;;;;;;15.63;8.73;;;12.00;97.30;;;;;;4588184;19;20092;-31
2023/03/04 07:26:26;;;;;;;;;;;12.00;97.30;;;;;;4589335;19;20094;-31
2023/03/04 07:27:57;;;;;;;17.53;8.50;;;11.90;97.60;;;;;;4588473;19;20313;-31
2023/03/04 07:29:30;;;;;;;20.13;9.43;;;12.00;97.60;;;;;;4588729;19;20038;-31
2023/03/04 07:31:18;;;;;;;18.00;10.20;;;11.90;97.60;;;;;;4588623;19;20405;-33
2023/03/04 07:32:50;;;;;;;30.50;18.93;;;11.90;97.70;;;;;;4588243;19;20010;-33
2023/03/04 07:34:22;;;;;;;18.08;10.07;;;11.90;97.70;;;;;;4588299;19;20448;-33
2023/03/04 07:35:59;;;;;;;16.55;10.50;;;11.90;97.90;;;;;;4588279;19;20010;-35
2023/03/04 07:37:30;;;;;;;16.50;10.33;;;12.20;97.90;;;;;;4592514;19;20023;-31
2023/03/04 07:39:04;;;;;;;14.77;8.77;;;12.40;97.50;;;;;;4592513;19;20436;-36
2023/03/04 07:40:36;;;;;;;25.83;14.17;;;12.60;97.60;;;;;;4594001;19;20496;-32
2023/03/04 07:42:08;;;;;;;34.37;18.37;;;12.60;97.00;;;;;;4591179;19;20520;-33
2023/03/04 07:43:40;;;;;;;24.02;13.60;;;12.40;97.00;;;;;;4591681;19;20473;-29
2023/03/04 07:45:11;;;;;;;42.78;24.35;;;12.30;97.20;;;;;;4592266;19;20010;-28
2023/03/04 07:46:43;;;;;;;45.22;26.08;;;12.10;97.30;;;;;;4592798;19;20015;-29
2023/03/04 07:48:14;;;;;;;32.55;18.40;;;12.00;97.40;;;;;;4590287;19;20040;-33
2023/03/04 07:49:45;;;;;;;28.33;16.00;;;11.90;97.60;;;;;;4591457;19;20468;-36
2023/03/04 07:51:19;;;;;;;20.80;12.03;;;11.80;97.70;;;;;;4592863;19;20010;-34